sensor_id;sensor_type;location;lat;lon;timestamp;pressure;altitude;pressure_sealevel;temperature;humidity
35704;BME280;21820;51.112;13.762;2023-05-25T00:01:38;100107.38;;;23.59;43.20
35704;BME280;21820;51.112;13.762;2023-05-25T00:04:07;100111.53;;;23.61;42.73
35704;BME280;21820;51.112;13.762;2023-05-25T00:06:34;100113.47;;;23.59;42.89
35704;BME280;21820;51.112;13.762;2023-05-25T00:09:01;100114.84;;;23.63;42.62
35704;BME280;21820;51.112;13.762;2023-05-25T00:11:27;100111.25;;;23.64;43.00
35704;BME280;21820;51.112;13.762;2023-05-25T00:13:52;100089.72;;;23.51;42.73
35704;BME280;21820;51.112;13.762;2023-05-25T00:16:18;100106.00;;;23.64;42.57
35704;BME280;21820;51.112;13.762;2023-05-25T00:18:43;100115.41;;;23.67;42.99
35704;BME280;21820;51.112;13.762;2023-05-25T00:21:09;100095.94;;;23.50;42.94
35704;BME280;21820;51.112;13.762;2023-05-25T00:23:35;100106.00;;;23.64;43.05
35704;BME280;21820;51.112;13.762;2023-05-25T00:26:02;100118.56;;;23.61;43.25
35704;BME280;21820;51.112;13.762;2023-05-25T00:28:27;100097.44;;;23.53;43.25
35704;BME280;21820;51.112;13.762;2023-05-25T00:30:53;100109.59;;;23.63;43.51
35704;BME280;21820;51.112;13.762;2023-05-25T00:33:18;100094.28;;;23.49;43.33
35704;BME280;21820;51.112;13.762;2023-05-25T00:35:44;100115.94;;;23.61;42.74
35704;BME280;21820;51.112;13.762;2023-05-25T00:38:18;100112.63;;;23.59;43.00
35704;BME280;21820;51.112;13.762;2023-05-25T00:40:44;100109.84;;;23.60;42.72
35704;BME280;21820;51.112;13.762;2023-05-25T00:43:10;100108.75;;;23.63;42.84
35704;BME280;21820;51.112;13.762;2023-05-25T00:45:36;100106.28;;;23.61;42.66
35704;BME280;21820;51.112;13.762;2023-05-25T00:48:05;100091.50;;;23.51;43.42
35704;BME280;21820;51.112;13.762;2023-05-25T00:50:41;100102.69;;;23.62;42.75
35704;BME280;21820;51.112;13.762;2023-05-25T00:53:08;100104.34;;;23.63;42.79
35704;BME280;21820;51.112;13.762;2023-05-25T00:55:57;100106.00;;;23.64;42.66
35704;BME280;21820;51.112;13.762;2023-05-25T00:58:26;100097.44;;;23.62;42.76
35704;BME280;21820;51.112;13.762;2023-05-25T01:00:53;100105.44;;;23.61;43.03
35704;BME280;21820;51.112;13.762;2023-05-25T01:03:22;100099.09;;;23.63;42.94
35704;BME280;21820;51.112;13.762;2023-05-25T01:05:54;100086.09;;;23.52;42.42
35704;BME280;21820;51.112;13.762;2023-05-25T01:08:21;100106.00;;;23.64;42.93
35704;BME280;21820;51.112;13.762;2023-05-25T01:10:50;100100.88;;;23.63;43.10
35704;BME280;21820;51.112;13.762;2023-05-25T01:13:17;100106.97;;;23.63;43.23
35704;BME280;21820;51.112;13.762;2023-05-25T01:15:45;100114.00;;;23.63;43.21
35704;BME280;21820;51.112;13.762;2023-05-25T01:18:13;100110.41;;;23.64;43.00
35704;BME280;21820;51.112;13.762;2023-05-25T01:20:54;100111.53;;;23.61;43.11
35704;BME280;21820;51.112;13.762;2023-05-25T01:23:25;100109.47;;;23.65;42.63
35704;BME280;21820;51.112;13.762;2023-05-25T01:25:58;100115.66;;;23.64;42.61
35704;BME280;21820;51.112;13.762;2023-05-25T01:28:28;100118.97;;;23.66;43.17
35704;BME280;21820;51.112;13.762;2023-05-25T01:30:55;100109.59;;;23.63;42.80
35704;BME280;21820;51.112;13.762;2023-05-25T01:33:21;100120.09;;;23.63;42.90
35704;BME280;21820;51.112;13.762;2023-05-25T01:35:48;100119.81;;;23.66;43.15
35704;BME280;21820;51.112;13.762;2023-05-25T01:38:15;100101.56;;;23.55;43.09
35704;BME280;21820;51.112;13.762;2023-05-25T01:40:41;100115.66;;;23.64;42.71
35704;BME280;21820;51.112;13.762;2023-05-25T01:43:07;100122.72;;;23.63;43.23
35704;BME280;21820;51.112;13.762;2023-05-25T01:45:32;100130.59;;;23.63;42.61
35704;BME280;21820;51.112;13.762;2023-05-25T01:50:47;100119.13;;;23.64;42.97
35704;BME280;21820;51.112;13.762;2023-05-25T01:53:19;100117.34;;;23.65;42.52
35704;BME280;21820;51.112;13.762;2023-05-25T01:56:09;100119.25;;;23.63;42.74
35704;BME280;21820;51.112;13.762;2023-05-25T01:58:41;100107.50;;;23.57;43.24
35704;BME280;21820;51.112;13.762;2023-05-25T02:01:08;100106.56;;;23.58;43.23
35704;BME280;21820;51.112;13.762;2023-05-25T02:03:35;100111.53;;;23.61;42.68
35704;BME280;21820;51.112;13.762;2023-05-25T02:06:01;100111.25;;;23.64;43.00
35704;BME280;21820;51.112;13.762;2023-05-25T02:08:26;100115.66;;;23.64;42.74
35704;BME280;21820;51.112;13.762;2023-05-25T02:10:52;100113.31;;;23.61;43.17
35704;BME280;21820;51.112;13.762;2023-05-25T02:13:17;100120.09;;;23.63;43.23
35704;BME280;21820;51.112;13.762;2023-05-25T02:15:42;100118.44;;;23.62;42.64
35704;BME280;21820;51.112;13.762;2023-05-25T02:18:08;100118.97;;;23.66;42.84
35704;BME280;21820;51.112;13.762;2023-05-25T02:20:35;100128.94;;;23.62;42.90
35704;BME280;21820;51.112;13.762;2023-05-25T02:23:00;100132.94;;;23.66;42.68
35704;BME280;21820;51.112;13.762;2023-05-25T02:25:26;100135.84;;;23.63;42.72
35704;BME280;21820;51.112;13.762;2023-05-25T02:27:51;100131.56;;;23.62;43.11
35704;BME280;21820;51.112;13.762;2023-05-25T02:30:16;100138.34;;;23.65;42.57
35704;BME280;21820;51.112;13.762;2023-05-25T02:32:42;100130.59;;;23.63;42.79
35704;BME280;21820;51.112;13.762;2023-05-25T02:35:08;100140.13;;;23.64;42.88
35704;BME280;21820;51.112;13.762;2023-05-25T02:37:33;100140.97;;;23.65;42.33
35704;BME280;21820;51.112;13.762;2023-05-25T02:39:59;100136.94;;;23.61;43.31
35704;BME280;21820;51.112;13.762;2023-05-25T02:42:24;100140.13;;;23.64;42.70
35704;BME280;21820;51.112;13.762;2023-05-25T02:44:49;100141.91;;;23.64;42.51
35704;BME280;21820;51.112;13.762;2023-05-25T02:47:15;100134.88;;;23.64;42.86
35704;BME280;21820;51.112;13.762;2023-05-25T02:49:42;100138.47;;;23.63;42.90
35704;BME280;21820;51.112;13.762;2023-05-25T02:52:07;100128.94;;;23.62;42.68
35704;BME280;21820;51.112;13.762;2023-05-25T02:54:33;100130.59;;;23.63;42.51
35704;BME280;21820;51.112;13.762;2023-05-25T02:56:58;100139.44;;;23.62;42.63
35704;BME280;21820;51.112;13.762;2023-05-25T02:59:23;100136.00;;;23.62;42.51
35704;BME280;21820;51.112;13.762;2023-05-25T03:01:49;100145.66;;;23.61;42.90
35704;BME280;21820;51.112;13.762;2023-05-25T03:04:15;100145.50;;;23.63;42.80
35704;BME280;21820;51.112;13.762;2023-05-25T03:06:42;100149.13;;;23.62;42.88
35704;BME280;21820;51.112;13.762;2023-05-25T03:09:07;100141.63;;;23.57;43.18
35704;BME280;21820;51.112;13.762;2023-05-25T03:11:33;100149.66;;;23.65;43.04
35704;BME280;21820;51.112;13.762;2023-05-25T03:13:58;100147.44;;;23.61;43.25
35704;BME280;21820;51.112;13.762;2023-05-25T03:16:24;100153.25;;;23.64;42.76
35704;BME280;21820;51.112;13.762;2023-05-25T03:18:50;100160.97;;;23.66;42.78
35704;BME280;21820;51.112;13.762;2023-05-25T03:21:15;100144.41;;;23.56;43.04
35704;BME280;21820;51.112;13.762;2023-05-25T03:23:40;100159.19;;;23.66;42.52
35704;BME280;21820;51.112;13.762;2023-05-25T03:26:06;100162.09;;;23.63;42.87
35704;BME280;21820;51.112;13.762;2023-05-25T03:28:31;100163.75;;;23.64;43.16
35704;BME280;21820;51.112;13.762;2023-05-25T03:30:56;100170.66;;;23.65;42.79
35704;BME280;21820;51.112;13.762;2023-05-25T03:33:22;100169.97;;;23.63;42.63
35704;BME280;21820;51.112;13.762;2023-05-25T03:35:47;100165.97;;;23.59;43.24
35704;BME280;21820;51.112;13.762;2023-05-25T03:38:13;100167.59;;;23.60;43.09
35704;BME280;21820;51.112;13.762;2023-05-25T03:40:38;100167.34;;;23.63;42.80
35704;BME280;21820;51.112;13.762;2023-05-25T03:43:03;100177.84;;;23.63;42.91
35704;BME280;21820;51.112;13.762;2023-05-25T03:45:29;100181.28;;;23.64;42.82
35704;BME280;21820;51.112;13.762;2023-05-25T03:47:54;100171.50;;;23.56;42.55
35704;BME280;21820;51.112;13.762;2023-05-25T03:50:20;100183.34;;;23.60;43.64
35704;BME280;21820;51.112;13.762;2023-05-25T03:52:45;100185.03;;;23.61;42.61
35704;BME280;21820;51.112;13.762;2023-05-25T03:55:11;100188.34;;;23.63;42.64
35704;BME280;21820;51.112;13.762;2023-05-25T03:57:39;100185.59;;;23.65;42.47
35704;BME280;21820;51.112;13.762;2023-05-25T04:00:05;100187.66;;;23.61;43.12
35704;BME280;21820;51.112;13.762;2023-05-25T04:02:30;100194.41;;;23.64;43.29
35704;BME280;21820;51.112;13.762;2023-05-25T04:04:55;100195.25;;;23.64;42.41
35704;BME280;21820;51.112;13.762;2023-05-25T04:07:21;100202.44;;;23.62;42.66
35704;BME280;21820;51.112;13.762;2023-05-25T04:09:46;100207.41;;;23.65;42.42
35704;BME280;21820;51.112;13.762;2023-05-25T04:12:12;100211.00;;;23.64;42.81
35704;BME280;21820;51.112;13.762;2023-05-25T04:14:37;100214.59;;;23.63;43.15
35704;BME280;21820;51.112;13.762;2023-05-25T04:17:03;100219.84;;;23.63;42.84
35704;BME280;21820;51.112;13.762;2023-05-25T04:19:28;100217.22;;;23.63;43.13
35704;BME280;21820;51.112;13.762;2023-05-25T04:21:53;100212.13;;;23.62;42.83
35704;BME280;21820;51.112;13.762;2023-05-25T04:24:20;100212.94;;;23.62;43.16
35704;BME280;21820;51.112;13.762;2023-05-25T04:26:45;100210.59;;;23.59;42.49
35704;BME280;21820;51.112;13.762;2023-05-25T04:29:11;100198.16;;;23.52;42.96
35704;BME280;21820;51.112;13.762;2023-05-25T04:31:38;100205.19;;;23.61;42.49
35704;BME280;21820;51.112;13.762;2023-05-25T04:34:04;100207.53;;;23.64;43.07
35704;BME280;21820;51.112;13.762;2023-05-25T04:36:29;100210.16;;;23.64;42.72
35704;BME280;21820;51.112;13.762;2023-05-25T04:38:58;100211.00;;;23.64;42.48
35704;BME280;21820;51.112;13.762;2023-05-25T04:41:27;100208.38;;;23.64;42.72
35704;BME280;21820;51.112;13.762;2023-05-25T04:43:54;100201.06;;;23.58;42.82
35704;BME280;21820;51.112;13.762;2023-05-25T04:46:19;100203.97;;;23.65;42.73
35704;BME280;21820;51.112;13.762;2023-05-25T04:48:44;100213.63;;;23.64;42.31
35704;BME280;21820;51.112;13.762;2023-05-25T04:51:10;100214.59;;;23.63;42.77
35704;BME280;21820;51.112;13.762;2023-05-25T04:53:36;100200.22;;;23.58;42.51
35704;BME280;21820;51.112;13.762;2023-05-25T04:56:02;100207.69;;;23.62;42.65
35704;BME280;21820;51.112;13.762;2023-05-25T04:58:28;100209.59;;;23.60;42.97
35704;BME280;21820;51.112;13.762;2023-05-25T05:00:57;100206.59;;;23.65;43.08
35704;BME280;21820;51.112;13.762;2023-05-25T05:03:23;100211.97;;;23.63;42.63
35704;BME280;21820;51.112;13.762;2023-05-25T05:05:49;100210.44;;;23.61;43.04
35704;BME280;21820;51.112;13.762;2023-05-25T05:08:14;100202.72;;;23.59;42.73
35704;BME280;21820;51.112;13.762;2023-05-25T05:10:39;100210.59;;;23.59;43.00
35704;BME280;21820;51.112;13.762;2023-05-25T05:13:05;100194.84;;;23.59;42.53
35704;BME280;21820;51.112;13.762;2023-05-25T05:15:30;100212.13;;;23.62;43.04
35704;BME280;21820;51.112;13.762;2023-05-25T05:17:56;100203.41;;;23.61;43.27
35704;BME280;21820;51.112;13.762;2023-05-25T05:20:21;100188.88;;;23.48;43.26
35704;BME280;21820;51.112;13.762;2023-05-25T05:22:47;100211.28;;;23.61;42.56
35704;BME280;21820;51.112;13.762;2023-05-25T05:25:12;100212.13;;;23.62;42.92
35704;BME280;21820;51.112;13.762;2023-05-25T05:27:38;100212.94;;;23.62;42.52
35704;BME280;21820;51.112;13.762;2023-05-25T05:30:03;100211.28;;;23.61;42.71
35704;BME280;21820;51.112;13.762;2023-05-25T05:32:29;100215.69;;;23.61;42.50
35704;BME280;21820;51.112;13.762;2023-05-25T05:34:54;100214.59;;;23.63;43.11
35704;BME280;21820;51.112;13.762;2023-05-25T05:37:19;100217.38;;;23.62;42.82
35704;BME280;21820;51.112;13.762;2023-05-25T05:39:45;100207.69;;;23.53;42.57
35704;BME280;21820;51.112;13.762;2023-05-25T05:42:10;100222.63;;;23.62;42.74
35704;BME280;21820;51.112;13.762;2023-05-25T05:44:36;100219.44;;;23.58;42.69
35704;BME280;21820;51.112;13.762;2023-05-25T05:47:01;100222.88;;;23.59;43.23
35704;BME280;21820;51.112;13.762;2023-05-25T05:49:28;100218.47;;;23.59;42.60
35704;BME280;21820;51.112;13.762;2023-05-25T05:51:54;100216.81;;;23.58;43.13
35704;BME280;21820;51.112;13.762;2023-05-25T05:54:19;100225.25;;;23.62;42.87
35704;BME280;21820;51.112;13.762;2023-05-25T05:56:45;100225.09;;;23.63;42.78
35704;BME280;21820;51.112;13.762;2023-05-25T05:59:10;100221.50;;;23.64;43.09
35704;BME280;21820;51.112;13.762;2023-05-25T06:01:36;100219.84;;;23.63;42.51
35704;BME280;21820;51.112;13.762;2023-05-25T06:04:01;100223.16;;;23.65;43.04
35704;BME280;21820;51.112;13.762;2023-05-25T06:06:26;100227.03;;;23.61;43.17
35704;BME280;21820;51.112;13.762;2023-05-25T06:08:52;100222.63;;;23.62;42.43
35704;BME280;21820;51.112;13.762;2023-05-25T06:11:18;100223.44;;;23.62;42.55
35704;BME280;21820;51.112;13.762;2023-05-25T06:13:43;100234.78;;;23.63;43.12
35704;BME280;21820;51.112;13.762;2023-05-25T06:16:09;100233.38;;;23.59;42.68
35704;BME280;21820;51.112;13.762;2023-05-25T06:18:34;100223.44;;;23.62;43.10
35704;BME280;21820;51.112;13.762;2023-05-25T06:21:00;100232.16;;;23.63;42.81
35704;BME280;21820;51.112;13.762;2023-05-25T06:23:26;100227.03;;;23.61;42.81
35704;BME280;21820;51.112;13.762;2023-05-25T06:25:51;100225.34;;;23.60;42.96
35704;BME280;21820;51.112;13.762;2023-05-25T06:28:18;100222.88;;;23.59;42.54
35704;BME280;21820;51.112;13.762;2023-05-25T06:30:43;100219.84;;;23.63;42.45
35704;BME280;21820;51.112;13.762;2023-05-25T06:33:09;100227.88;;;23.62;42.62
35704;BME280;21820;51.112;13.762;2023-05-25T06:35:34;100236.56;;;23.62;42.62
35704;BME280;21820;51.112;13.762;2023-05-25T06:37:59;100228.97;;;23.59;42.54
35704;BME280;21820;51.112;13.762;2023-05-25T06:40:25;100228.97;;;23.59;42.98
35704;BME280;21820;51.112;13.762;2023-05-25T06:42:51;100235.59;;;23.63;42.96
35704;BME280;21820;51.112;13.762;2023-05-25T06:45:16;100238.91;;;23.65;42.37
35704;BME280;21820;51.112;13.762;2023-05-25T06:47:41;100227.88;;;23.62;42.60
35704;BME280;21820;51.112;13.762;2023-05-25T06:50:07;100235.59;;;23.63;42.34
35704;BME280;21820;51.112;13.762;2023-05-25T06:52:33;100240.16;;;23.61;42.74
35704;BME280;21820;51.112;13.762;2023-05-25T06:54:58;100239.31;;;23.61;42.20
35704;BME280;21820;51.112;13.762;2023-05-25T06:57:24;100242.78;;;23.61;42.26
35704;BME280;21820;51.112;13.762;2023-05-25T06:59:49;100233.94;;;23.62;42.27
35704;BME280;21820;51.112;13.762;2023-05-25T07:02:15;100236.00;;;23.59;42.84
35704;BME280;21820;51.112;13.762;2023-05-25T07:04:40;100231.88;;;23.56;42.88
35704;BME280;21820;51.112;13.762;2023-05-25T07:07:05;100212.38;;;23.49;42.91
35704;BME280;21820;51.112;13.762;2023-05-25T07:09:31;100231.16;;;23.64;43.03
35704;BME280;21820;51.112;13.762;2023-05-25T07:11:57;100236.56;;;23.62;42.57
35704;BME280;21820;51.112;13.762;2023-05-25T07:14:22;100234.91;;;23.61;42.58
35704;BME280;21820;51.112;13.762;2023-05-25T07:16:48;100233.94;;;23.62;42.79
35704;BME280;21820;51.112;13.762;2023-05-25T07:19:14;100233.22;;;23.60;42.87
35704;BME280;21820;51.112;13.762;2023-05-25T07:21:39;100235.59;;;23.63;42.91
35704;BME280;21820;51.112;13.762;2023-05-25T07:24:04;100232.28;;;23.61;42.90
35704;BME280;21820;51.112;13.762;2023-05-25T07:26:30;100234.91;;;23.61;42.60
35704;BME280;21820;51.112;13.762;2023-05-25T07:28:56;100232.28;;;23.61;42.31
35704;BME280;21820;51.112;13.762;2023-05-25T07:31:22;100226.47;;;23.58;42.65
35704;BME280;21820;51.112;13.762;2023-05-25T07:33:47;100224.81;;;23.57;42.99
35704;BME280;21820;51.112;13.762;2023-05-25T07:36:13;100226.06;;;23.62;42.86
35704;BME280;21820;51.112;13.762;2023-05-25T07:38:38;100215.13;;;23.57;42.87
35704;BME280;21820;51.112;13.762;2023-05-25T07:41:04;100216.81;;;23.58;42.67
35704;BME280;21820;51.112;13.762;2023-05-25T07:43:29;100219.44;;;23.58;42.97
35704;BME280;21820;51.112;13.762;2023-05-25T07:45:54;100218.19;;;23.62;42.48
35704;BME280;21820;51.112;13.762;2023-05-25T07:48:20;100214.19;;;23.58;42.37
35704;BME280;21820;51.112;13.762;2023-05-25T07:50:45;100219.44;;;23.58;42.92
35704;BME280;21820;51.112;13.762;2023-05-25T07:53:11;100219.44;;;23.58;42.62
35704;BME280;21820;51.112;13.762;2023-05-25T07:55:36;100220.38;;;23.57;42.38
35704;BME280;21820;51.112;13.762;2023-05-25T07:58:01;100227.31;;;23.58;43.08
35704;BME280;21820;51.112;13.762;2023-05-25T08:00:27;100235.19;;;23.58;42.84
35704;BME280;21820;51.112;13.762;2023-05-25T08:02:54;100236.13;;;23.57;42.94
35704;BME280;21820;51.112;13.762;2023-05-25T08:05:19;100218.75;;;23.47;42.29
35704;BME280;21820;51.112;13.762;2023-05-25T08:07:45;100237.81;;;23.58;42.39
35704;BME280;21820;51.112;13.762;2023-05-25T08:10:10;100244.44;;;23.62;43.08
35704;BME280;21820;51.112;13.762;2023-05-25T08:12:36;100240.31;;;23.60;42.16
35704;BME280;21820;51.112;13.762;2023-05-25T08:15:01;100240.16;;;23.61;42.20
35704;BME280;21820;51.112;13.762;2023-05-25T08:17:27;100235.31;;;23.57;42.31
35704;BME280;21820;51.112;13.762;2023-05-25T08:19:55;100215.69;;;23.51;42.95
35704;BME280;21820;51.112;13.762;2023-05-25T08:22:20;100233.13;;;23.62;43.11
35704;BME280;21820;51.112;13.762;2023-05-25T08:24:46;100217.34;;;23.52;42.47
35704;BME280;21820;51.112;13.762;2023-05-25T08:27:11;100233.94;;;23.62;42.23
35704;BME280;21820;51.112;13.762;2023-05-25T08:29:37;100243.63;;;23.62;42.60
35704;BME280;21820;51.112;13.762;2023-05-25T08:32:02;100244.44;;;23.62;42.48
35704;BME280;21820;51.112;13.762;2023-05-25T08:34:27;100243.63;;;23.62;42.60
35704;BME280;21820;51.112;13.762;2023-05-25T08:36:55;100232.28;;;23.61;42.60
35704;BME280;21820;51.112;13.762;2023-05-25T08:39:21;100245.41;;;23.61;42.24
35704;BME280;21820;51.112;13.762;2023-05-25T08:41:48;100224.53;;;23.50;42.52
35704;BME280;21820;51.112;13.762;2023-05-25T08:44:14;100243.06;;;23.58;42.93
35704;BME280;21820;51.112;13.762;2023-05-25T08:46:40;100242.09;;;23.59;42.59
35704;BME280;21820;51.112;13.762;2023-05-25T08:49:13;100245.56;;;23.60;42.28
35704;BME280;21820;51.112;13.762;2023-05-25T08:51:49;100237.81;;;23.58;42.91
35704;BME280;21820;51.112;13.762;2023-05-25T08:54:42;100241.09;;;23.60;42.61
35704;BME280;21820;51.112;13.762;2023-05-25T08:57:12;100244.56;;;23.61;42.66
35704;BME280;21820;51.112;13.762;2023-05-25T08:59:46;100249.97;;;23.59;42.53
35704;BME280;21820;51.112;13.762;2023-05-25T09:04:42;100246.34;;;23.60;42.72
35704;BME280;21820;51.112;13.762;2023-05-25T09:07:08;100256.03;;;23.60;42.42
35704;BME280;21820;51.112;13.762;2023-05-25T09:09:34;100257.13;;;23.57;42.66
35704;BME280;21820;51.112;13.762;2023-05-25T09:12:02;100256.75;;;23.62;42.72
35704;BME280;21820;51.112;13.762;2023-05-25T09:14:29;100258.81;;;23.58;42.59
35704;BME280;21820;51.112;13.762;2023-05-25T09:16:55;100258.53;;;23.61;42.55
35704;BME280;21820;51.112;13.762;2023-05-25T09:19:22;100248.31;;;23.58;42.37
35704;BME280;21820;51.112;13.762;2023-05-25T09:21:47;100253.56;;;23.58;42.25
35704;BME280;21820;51.112;13.762;2023-05-25T09:24:13;100251.75;;;23.59;42.90
35704;BME280;21820;51.112;13.762;2023-05-25T09:26:39;100258.81;;;23.58;42.86
35704;BME280;21820;51.112;13.762;2023-05-25T09:29:04;100261.31;;;23.60;42.44
35704;BME280;21820;51.112;13.762;2023-05-25T09:31:30;100255.06;;;23.61;42.53
35704;BME280;21820;51.112;13.762;2023-05-25T09:33:55;100258.41;;;23.63;42.32
35704;BME280;21820;51.112;13.762;2023-05-25T09:36:24;100256.03;;;23.60;42.16
35704;BME280;21820;51.112;13.762;2023-05-25T09:38:52;100260.31;;;23.61;42.87
35704;BME280;21820;51.112;13.762;2023-05-25T09:41:18;100270.69;;;23.62;42.23
35704;BME280;21820;51.112;13.762;2023-05-25T09:43:43;100263.78;;;23.61;42.11
35704;BME280;21820;51.112;13.762;2023-05-25T09:46:09;100267.63;;;23.57;42.66
35704;BME280;21820;51.112;13.762;2023-05-25T09:48:35;100269.31;;;23.58;42.28
35704;BME280;21820;51.112;13.762;2023-05-25T09:51:01;100272.75;;;23.59;42.27
35704;BME280;21820;51.112;13.762;2023-05-25T09:53:26;100265.72;;;23.59;42.25
35704;BME280;21820;51.112;13.762;2023-05-25T09:55:51;100270.97;;;23.59;42.19
35704;BME280;21820;51.112;13.762;2023-05-25T09:58:17;100255.63;;;23.45;42.84
35704;BME280;21820;51.112;13.762;2023-05-25T10:00:42;100274.81;;;23.55;42.53
35704;BME280;21820;51.112;13.762;2023-05-25T10:03:10;100273.72;;;23.58;42.55
35704;BME280;21820;51.112;13.762;2023-05-25T10:05:39;100283.94;;;23.61;42.82
35704;BME280;21820;51.112;13.762;2023-05-25T10:08:04;100282.44;;;23.58;42.39
35704;BME280;21820;51.112;13.762;2023-05-25T10:10:31;100282.31;;;23.60;42.57
35704;BME280;21820;51.112;13.762;2023-05-25T10:12:57;100258.91;;;23.47;42.80
35704;BME280;21820;51.112;13.762;2023-05-25T10:15:23;100267.63;;;23.57;42.85
35704;BME280;21820;51.112;13.762;2023-05-25T10:17:52;100274.56;;;23.58;42.35
35704;BME280;21820;51.112;13.762;2023-05-25T10:20:20;100269.31;;;23.58;42.52
35704;BME280;21820;51.112;13.762;2023-05-25T10:22:59;100269.31;;;23.58;42.51
35704;BME280;21820;51.112;13.762;2023-05-25T10:25:28;100264.06;;;23.58;42.17
35704;BME280;21820;51.112;13.762;2023-05-25T10:27:58;100269.31;;;23.58;42.17
35704;BME280;21820;51.112;13.762;2023-05-25T10:30:25;100272.75;;;23.59;42.28
35704;BME280;21820;51.112;13.762;2023-05-25T10:32:51;100268.06;;;23.62;42.12
35704;BME280;21820;51.112;13.762;2023-05-25T10:35:17;100268.19;;;23.61;42.52
35704;BME280;21820;51.112;13.762;2023-05-25T10:37:43;100265.28;;;23.54;42.46
35704;BME280;21820;51.112;13.762;2023-05-25T10:40:09;100263.78;;;23.61;42.20
35704;BME280;21820;51.112;13.762;2023-05-25T10:42:36;100262.38;;;23.57;42.74
35704;BME280;21820;51.112;13.762;2023-05-25T10:45:02;100265.00;;;23.57;42.11
35704;BME280;21820;51.112;13.762;2023-05-25T10:47:29;100266.41;;;23.61;42.07
35704;BME280;21820;51.112;13.762;2023-05-25T10:49:56;100258.94;;;23.57;42.92
35704;BME280;21820;51.112;13.762;2023-05-25T10:52:31;100262.94;;;23.61;42.77
35704;BME280;21820;51.112;13.762;2023-05-25T10:54:59;100263.09;;;23.59;42.60
35704;BME280;21820;51.112;13.762;2023-05-25T10:57:29;100260.47;;;23.59;42.27
35704;BME280;21820;51.112;13.762;2023-05-25T11:00:00;100253.56;;;23.58;42.60
35704;BME280;21820;51.112;13.762;2023-05-25T11:02:27;100250.94;;;23.58;42.68
35704;BME280;21820;51.112;13.762;2023-05-25T11:05:29;100249.25;;;23.57;42.50
35704;BME280;21820;51.112;13.762;2023-05-25T11:07:58;100248.31;;;23.58;42.62
35704;BME280;21820;51.112;13.762;2023-05-25T11:16:14;100215.97;;;23.48;42.48
35704;BME280;21820;51.112;13.762;2023-05-25T11:19:02;100230.19;;;23.55;42.35
35704;BME280;21820;51.112;13.762;2023-05-25T11:26:21;100226.63;;;23.56;42.31
35704;BME280;21820;51.112;13.762;2023-05-25T11:28:47;100229.25;;;23.56;42.79
35704;BME280;21820;51.112;13.762;2023-05-25T11:31:12;100220.94;;;23.51;42.95
35704;BME280;21820;51.112;13.762;2023-05-25T11:33:38;100232.56;;;23.58;42.86
35704;BME280;21820;51.112;13.762;2023-05-25T11:36:04;100238.91;;;23.56;42.78
35704;BME280;21820;51.112;13.762;2023-05-25T11:38:32;100229.94;;;23.58;42.26
35704;BME280;21820;51.112;13.762;2023-05-25T11:40:57;100232.69;;;23.57;42.44
35704;BME280;21820;51.112;13.762;2023-05-25T11:43:24;100230.88;;;23.57;42.52
35704;BME280;21820;51.112;13.762;2023-05-25T11:45:56;100216.78;;;23.49;42.69
35704;BME280;21820;51.112;13.762;2023-05-25T11:48:21;100224.00;;;23.56;42.51
35704;BME280;21820;51.112;13.762;2023-05-25T11:50:47;100225.63;;;23.57;42.63
35704;BME280;21820;51.112;13.762;2023-05-25T11:53:12;100218.47;;;23.59;42.54
35704;BME280;21820;51.112;13.762;2023-05-25T11:55:39;100216.81;;;23.58;42.79
35704;BME280;21820;51.112;13.762;2023-05-25T11:58:06;100223.72;;;23.59;42.81
35704;BME280;21820;51.112;13.762;2023-05-25T12:00:32;100218.19;;;23.62;42.99
35704;BME280;21820;51.112;13.762;2023-05-25T12:02:57;100217.75;;;23.57;42.54
35704;BME280;21820;51.112;13.762;2023-05-25T12:05:23;100201.88;;;23.49;42.65
35704;BME280;21820;51.112;13.762;2023-05-25T12:07:48;100214.19;;;23.58;42.96
35704;BME280;21820;51.112;13.762;2023-05-25T12:10:14;100209.88;;;23.57;42.20
35704;BME280;21820;51.112;13.762;2023-05-25T12:12:53;100206.84;;;23.52;42.95
35704;BME280;21820;51.112;13.762;2023-05-25T12:15:23;100208.09;;;23.58;42.84
35704;BME280;21820;51.112;13.762;2023-05-25T12:17:49;100209.59;;;23.60;42.85
35704;BME280;21820;51.112;13.762;2023-05-25T12:20:15;100205.75;;;23.55;42.65
35704;BME280;21820;51.112;13.762;2023-05-25T12:22:42;100206.31;;;23.58;42.55
35704;BME280;21820;51.112;13.762;2023-05-25T12:25:08;100201.88;;;23.59;42.89
35704;BME280;21820;51.112;13.762;2023-05-25T12:27:35;100205.19;;;23.61;42.46
35704;BME280;21820;51.112;13.762;2023-05-25T12:30:02;100213.22;;;23.59;42.81
35704;BME280;21820;51.112;13.762;2023-05-25T12:32:29;100201.06;;;23.58;42.97
35704;BME280;21820;51.112;13.762;2023-05-25T12:35:04;100192.50;;;23.56;42.80
35704;BME280;21820;51.112;13.762;2023-05-25T12:37:30;100195.81;;;23.58;42.09
35704;BME280;21820;51.112;13.762;2023-05-25T12:39:55;100188.19;;;23.55;42.84
35704;BME280;21820;51.112;13.762;2023-05-25T12:42:21;100186.97;;;23.59;42.64
35704;BME280;21820;51.112;13.762;2023-05-25T12:44:53;100183.63;;;23.57;42.70
35704;BME280;21820;51.112;13.762;2023-05-25T12:47:23;100179.38;;;23.56;42.61
35704;BME280;21820;51.112;13.762;2023-05-25T12:49:50;100172.88;;;23.51;42.16
35704;BME280;21820;51.112;13.762;2023-05-25T12:52:35;100180.59;;;23.52;42.56
35704;BME280;21820;51.112;13.762;2023-05-25T12:55:27;100180.31;;;23.55;42.53